sensor_id;sensor_type;location;lat;lon;timestamp;P1;durP1;ratioP1;P2;durP2;ratioP2
80183;SDS011;69682;52.138;5.440;2024-03-23T00:53:40;12.68;;;6.07;;
80183;SDS011;69682;52.138;5.440;2024-03-23T00:56:07;11.85;;;5.82;;
80183;SDS011;69682;52.138;5.440;2024-03-23T00:58:39;13.05;;;5.10;;
80183;SDS011;69682;52.138;5.440;2024-03-23T01:01:04;16.95;;;6.07;;
80183;SDS011;69682;52.138;5.440;2024-03-23T01:03:30;14.60;;;5.43;;
80183;SDS011;69682;52.138;5.440;2024-03-23T01:05:59;21.13;;;6.30;;
80183;SDS011;69682;52.138;5.440;2024-03-23T01:08:25;15.75;;;5.50;;
80183;SDS011;69682;52.138;5.440;2024-03-23T01:10:55;12.85;;;5.25;;
80183;SDS011;69682;52.138;5.440;2024-03-23T01:13:21;14.90;;;6.07;;
80183;SDS011;69682;52.138;5.440;2024-03-23T01:15:51;12.48;;;5.35;;
80183;SDS011;69682;52.138;5.440;2024-03-23T01:18:18;17.55;;;5.55;;
80183;SDS011;69682;52.138;5.440;2024-03-23T01:20:46;20.20;;;4.50;;
80183;SDS011;69682;52.138;5.440;2024-03-23T01:23:14;22.00;;;5.45;;
80183;SDS011;69682;52.138;5.440;2024-03-23T01:25:40;12.57;;;4.63;;
80183;SDS011;69682;52.138;5.440;2024-03-23T01:28:16;14.15;;;5.05;;
80183;SDS011;69682;52.138;5.440;2024-03-23T01:30:41;16.67;;;5.15;;
80183;SDS011;69682;52.138;5.440;2024-03-23T01:33:10;15.23;;;5.25;;
80183;SDS011;69682;52.138;5.440;2024-03-23T01:35:38;18.35;;;6.20;;
80183;SDS011;69682;52.138;5.440;2024-03-23T01:38:03;15.95;;;5.30;;
80183;SDS011;69682;52.138;5.440;2024-03-23T01:40:29;15.70;;;6.25;;
80183;SDS011;69682;52.138;5.440;2024-03-23T01:42:58;13.90;;;5.40;;
80183;SDS011;69682;52.138;5.440;2024-03-23T01:45:33;15.35;;;5.13;;
80183;SDS011;69682;52.138;5.440;2024-03-23T01:48:02;12.88;;;5.07;;
80183;SDS011;69682;52.138;5.440;2024-03-23T01:50:28;13.30;;;5.28;;
80183;SDS011;69682;52.138;5.440;2024-03-23T01:52:58;14.32;;;5.85;;
80183;SDS011;69682;52.138;5.440;2024-03-23T01:55:26;15.50;;;6.40;;
80183;SDS011;69682;52.138;5.440;2024-03-23T01:57:52;18.35;;;6.10;;
80183;SDS011;69682;52.138;5.440;2024-03-23T02:00:18;17.40;;;5.53;;
80183;SDS011;69682;52.138;5.440;2024-03-23T02:02:47;20.35;;;5.95;;
80183;SDS011;69682;52.138;5.440;2024-03-23T02:05:12;17.00;;;6.70;;
80183;SDS011;69682;52.138;5.440;2024-03-23T02:07:39;14.25;;;5.65;;
80183;SDS011;69682;52.138;5.440;2024-03-23T02:10:06;17.17;;;5.60;;
80183;SDS011;69682;52.138;5.440;2024-03-23T02:12:32;13.73;;;5.50;;
80183;SDS011;69682;52.138;5.440;2024-03-23T02:14:58;10.23;;;6.68;;
80183;SDS011;69682;52.138;5.440;2024-03-23T02:17:24;18.02;;;6.70;;
80183;SDS011;69682;52.138;5.440;2024-03-23T02:19:50;14.90;;;5.55;;
80183;SDS011;69682;52.138;5.440;2024-03-23T02:22:16;12.05;;;5.30;;
80183;SDS011;69682;52.138;5.440;2024-03-23T02:24:42;12.05;;;5.55;;
80183;SDS011;69682;52.138;5.440;2024-03-23T02:27:08;17.73;;;5.53;;
80183;SDS011;69682;52.138;5.440;2024-03-23T02:29:34;13.35;;;5.80;;
80183;SDS011;69682;52.138;5.440;2024-03-23T02:32:00;14.60;;;6.10;;
80183;SDS011;69682;52.138;5.440;2024-03-23T02:34:26;11.63;;;5.13;;
80183;SDS011;69682;52.138;5.440;2024-03-23T02:36:52;15.75;;;4.90;;
80183;SDS011;69682;52.138;5.440;2024-03-23T02:39:18;12.50;;;5.40;;
80183;SDS011;69682;52.138;5.440;2024-03-23T02:41:43;13.35;;;5.43;;
80183;SDS011;69682;52.138;5.440;2024-03-23T02:44:09;13.55;;;5.75;;
80183;SDS011;69682;52.138;5.440;2024-03-23T02:49:03;11.18;;;4.47;;
80183;SDS011;69682;52.138;5.440;2024-03-23T02:51:30;12.02;;;4.78;;
80183;SDS011;69682;52.138;5.440;2024-03-23T02:53:56;15.43;;;3.95;;
80183;SDS011;69682;52.138;5.440;2024-03-23T02:56:21;14.07;;;4.55;;
80183;SDS011;69682;52.138;5.440;2024-03-23T02:58:47;8.15;;;3.72;;
80183;SDS011;69682;52.138;5.440;2024-03-23T03:01:13;11.07;;;4.30;;
80183;SDS011;69682;52.138;5.440;2024-03-23T03:03:38;10.98;;;3.90;;
80183;SDS011;69682;52.138;5.440;2024-03-23T03:06:04;10.68;;;4.05;;
80183;SDS011;69682;52.138;5.440;2024-03-23T03:08:30;12.93;;;3.67;;
80183;SDS011;69682;52.138;5.440;2024-03-23T03:10:55;14.90;;;4.30;;
80183;SDS011;69682;52.138;5.440;2024-03-23T03:13:21;8.60;;;3.53;;
80183;SDS011;69682;52.138;5.440;2024-03-23T03:15:47;9.18;;;3.90;;
80183;SDS011;69682;52.138;5.440;2024-03-23T03:18:15;10.52;;;3.92;;
80183;SDS011;69682;52.138;5.440;2024-03-23T03:20:41;10.73;;;4.88;;
80183;SDS011;69682;52.138;5.440;2024-03-23T03:23:06;12.68;;;3.60;;
80183;SDS011;69682;52.138;5.440;2024-03-23T03:25:32;13.82;;;4.93;;
80183;SDS011;69682;52.138;5.440;2024-03-23T03:27:59;13.70;;;4.40;;
80183;SDS011;69682;52.138;5.440;2024-03-23T03:30:24;18.23;;;5.40;;
80183;SDS011;69682;52.138;5.440;2024-03-23T03:32:51;11.15;;;3.72;;
80183;SDS011;69682;52.138;5.440;2024-03-23T03:35:18;11.07;;;4.20;;
80183;SDS011;69682;52.138;5.440;2024-03-23T03:37:43;13.40;;;4.65;;
80183;SDS011;69682;52.138;5.440;2024-03-23T03:40:09;9.93;;;4.28;;
80183;SDS011;69682;52.138;5.440;2024-03-23T03:42:40;9.15;;;3.20;;
80183;SDS011;69682;52.138;5.440;2024-03-23T03:45:06;13.25;;;4.97;;
80183;SDS011;69682;52.138;5.440;2024-03-23T03:47:33;13.13;;;5.25;;
80183;SDS011;69682;52.138;5.440;2024-03-23T03:49:59;10.18;;;3.53;;
80183;SDS011;69682;52.138;5.440;2024-03-23T03:52:25;10.32;;;3.45;;
80183;SDS011;69682;52.138;5.440;2024-03-23T03:54:51;15.68;;;4.53;;
80183;SDS011;69682;52.138;5.440;2024-03-23T03:57:16;9.90;;;3.25;;
80183;SDS011;69682;52.138;5.440;2024-03-23T03:59:44;8.77;;;3.15;;
80183;SDS011;69682;52.138;5.440;2024-03-23T04:02:10;12.00;;;3.97;;
80183;SDS011;69682;52.138;5.440;2024-03-23T04:04:35;10.57;;;3.92;;
80183;SDS011;69682;52.138;5.440;2024-03-23T04:07:01;11.13;;;3.63;;
80183;SDS011;69682;52.138;5.440;2024-03-23T04:09:27;9.90;;;3.80;;
80183;SDS011;69682;52.138;5.440;2024-03-23T04:11:53;13.40;;;3.85;;
80183;SDS011;69682;52.138;5.440;2024-03-23T04:14:19;13.63;;;4.93;;
80183;SDS011;69682;52.138;5.440;2024-03-23T04:16:44;12.93;;;4.13;;
80183;SDS011;69682;52.138;5.440;2024-03-23T04:19:10;9.40;;;3.15;;
80183;SDS011;69682;52.138;5.440;2024-03-23T04:21:36;12.57;;;3.33;;
80183;SDS011;69682;52.138;5.440;2024-03-23T04:24:04;12.85;;;4.18;;
80183;SDS011;69682;52.138;5.440;2024-03-23T04:26:30;15.10;;;3.80;;
80183;SDS011;69682;52.138;5.440;2024-03-23T04:28:55;15.02;;;4.55;;
80183;SDS011;69682;52.138;5.440;2024-03-23T04:31:21;10.80;;;3.95;;
80183;SDS011;69682;52.138;5.440;2024-03-23T04:33:47;8.55;;;3.75;;
80183;SDS011;69682;52.138;5.440;2024-03-23T04:36:13;9.48;;;3.80;;
80183;SDS011;69682;52.138;5.440;2024-03-23T04:38:38;7.82;;;3.63;;
80183;SDS011;69682;52.138;5.440;2024-03-23T04:41:04;8.15;;;3.67;;
80183;SDS011;69682;52.138;5.440;2024-03-23T04:43:33;7.03;;;3.75;;
80183;SDS011;69682;52.138;5.440;2024-03-23T04:45:59;11.10;;;4.18;;
80183;SDS011;69682;52.138;5.440;2024-03-23T04:48:24;8.35;;;3.15;;
80183;SDS011;69682;52.138;5.440;2024-03-23T04:50:54;6.53;;;3.38;;
80183;SDS011;69682;52.138;5.440;2024-03-23T04:53:20;9.05;;;4.22;;
80183;SDS011;69682;52.138;5.440;2024-03-23T04:55:46;16.05;;;4.70;;
80183;SDS011;69682;52.138;5.440;2024-03-23T04:58:11;6.63;;;3.42;;
80183;SDS011;69682;52.138;5.440;2024-03-23T05:00:37;6.93;;;3.05;;
80183;SDS011;69682;52.138;5.440;2024-03-23T05:03:03;5.65;;;3.20;;
80183;SDS011;69682;52.138;5.440;2024-03-23T05:05:29;4.40;;;2.35;;
80183;SDS011;69682;52.138;5.440;2024-03-23T05:07:58;11.63;;;4.43;;
80183;SDS011;69682;52.138;5.440;2024-03-23T05:10:26;9.90;;;3.67;;
80183;SDS011;69682;52.138;5.440;2024-03-23T05:12:53;4.43;;;2.58;;
80183;SDS011;69682;52.138;5.440;2024-03-23T05:15:18;7.25;;;2.60;;
80183;SDS011;69682;52.138;5.440;2024-03-23T05:17:44;5.85;;;2.22;;
80183;SDS011;69682;52.138;5.440;2024-03-23T05:20:09;6.60;;;2.72;;
80183;SDS011;69682;52.138;5.440;2024-03-23T05:22:38;5.78;;;2.55;;
80183;SDS011;69682;52.138;5.440;2024-03-23T05:25:04;7.30;;;2.60;;
80183;SDS011;69682;52.138;5.440;2024-03-23T05:27:33;6.38;;;3.33;;
80183;SDS011;69682;52.138;5.440;2024-03-23T05:29:59;8.60;;;2.33;;
80183;SDS011;69682;52.138;5.440;2024-03-23T05:32:25;9.93;;;2.67;;
80183;SDS011;69682;52.138;5.440;2024-03-23T05:34:52;8.35;;;2.05;;
80183;SDS011;69682;52.138;5.440;2024-03-23T05:37:21;3.70;;;1.90;;
80183;SDS011;69682;52.138;5.440;2024-03-23T05:39:48;4.90;;;2.08;;
80183;SDS011;69682;52.138;5.440;2024-03-23T05:42:16;4.40;;;2.08;;
80183;SDS011;69682;52.138;5.440;2024-03-23T05:44:43;5.55;;;2.33;;
80183;SDS011;69682;52.138;5.440;2024-03-23T05:47:12;3.72;;;1.70;;
80183;SDS011;69682;52.138;5.440;2024-03-23T05:49:40;12.52;;;2.80;;
80183;SDS011;69682;52.138;5.440;2024-03-23T05:52:08;5.88;;;2.28;;
80183;SDS011;69682;52.138;5.440;2024-03-23T05:54:34;5.15;;;2.05;;
80183;SDS011;69682;52.138;5.440;2024-03-23T05:57:02;15.82;;;2.92;;
80183;SDS011;69682;52.138;5.440;2024-03-23T05:59:28;9.63;;;2.08;;
80183;SDS011;69682;52.138;5.440;2024-03-23T06:01:54;6.72;;;1.77;;
80183;SDS011;69682;52.138;5.440;2024-03-23T06:04:20;7.38;;;2.25;;
80183;SDS011;69682;52.138;5.440;2024-03-23T06:06:46;2.83;;;1.67;;
80183;SDS011;69682;52.138;5.440;2024-03-23T06:09:12;9.77;;;2.67;;
80183;SDS011;69682;52.138;5.440;2024-03-23T06:11:38;11.38;;;2.47;;
80183;SDS011;69682;52.138;5.440;2024-03-23T06:14:03;9.20;;;1.77;;
80183;SDS011;69682;52.138;5.440;2024-03-23T06:16:33;5.22;;;1.85;;
80183;SDS011;69682;52.138;5.440;2024-03-23T06:18:59;5.90;;;1.52;;
80183;SDS011;69682;52.138;5.440;2024-03-23T06:21:25;7.60;;;1.58;;
80183;SDS011;69682;52.138;5.440;2024-03-23T06:23:54;7.25;;;1.85;;
80183;SDS011;69682;52.138;5.440;2024-03-23T06:26:19;7.95;;;2.80;;
80183;SDS011;69682;52.138;5.440;2024-03-23T06:28:49;5.55;;;2.08;;
80183;SDS011;69682;52.138;5.440;2024-03-23T06:33:40;6.65;;;1.38;;
80183;SDS011;69682;52.138;5.440;2024-03-23T06:36:10;2.85;;;1.88;;
80183;SDS011;69682;52.138;5.440;2024-03-23T06:38:39;4.15;;;1.65;;
80183;SDS011;69682;52.138;5.440;2024-03-23T06:41:05;4.05;;;1.58;;
80183;SDS011;69682;52.138;5.440;2024-03-23T06:43:31;7.88;;;1.75;;
80183;SDS011;69682;52.138;5.440;2024-03-23T06:45:57;3.45;;;1.70;;
80183;SDS011;69682;52.138;5.440;2024-03-23T06:48:22;8.23;;;1.88;;
80183;SDS011;69682;52.138;5.440;2024-03-23T06:50:49;5.38;;;1.60;;
80183;SDS011;69682;52.138;5.440;2024-03-23T06:53:14;6.40;;;1.75;;
80183;SDS011;69682;52.138;5.440;2024-03-23T06:55:40;5.68;;;1.77;;
80183;SDS011;69682;52.138;5.440;2024-03-23T06:58:15;6.00;;;1.20;;
80183;SDS011;69682;52.138;5.440;2024-03-23T07:00:41;4.60;;;1.20;;
80183;SDS011;69682;52.138;5.440;2024-03-23T07:03:06;5.68;;;1.25;;
80183;SDS011;69682;52.138;5.440;2024-03-23T07:05:35;3.47;;;1.80;;
80183;SDS011;69682;52.138;5.440;2024-03-23T07:10:30;5.85;;;1.92;;
80183;SDS011;69682;52.138;5.440;2024-03-23T07:12:55;7.47;;;1.75;;
80183;SDS011;69682;52.138;5.440;2024-03-23T07:15:21;7.75;;;1.75;;
80183;SDS011;69682;52.138;5.440;2024-03-23T07:17:47;4.65;;;1.88;;
80183;SDS011;69682;52.138;5.440;2024-03-23T07:20:13;3.90;;;1.25;;
80183;SDS011;69682;52.138;5.440;2024-03-23T07:22:39;6.05;;;2.17;;
80183;SDS011;69682;52.138;5.440;2024-03-23T07:25:05;2.47;;;1.10;;
80183;SDS011;69682;52.138;5.440;2024-03-23T07:27:31;5.20;;;1.70;;
80183;SDS011;69682;52.138;5.440;2024-03-23T07:29:57;5.60;;;1.92;;
80183;SDS011;69682;52.138;5.440;2024-03-23T07:32:23;4.43;;;1.85;;
80183;SDS011;69682;52.138;5.440;2024-03-23T07:34:49;2.80;;;1.38;;
80183;SDS011;69682;52.138;5.440;2024-03-23T07:37:14;6.03;;;1.77;;
80183;SDS011;69682;52.138;5.440;2024-03-23T07:39:41;5.68;;;2.05;;
80183;SDS011;69682;52.138;5.440;2024-03-23T07:42:09;7.32;;;2.20;;
80183;SDS011;69682;52.138;5.440;2024-03-23T07:44:35;4.07;;;1.17;;
80183;SDS011;69682;52.138;5.440;2024-03-23T07:47:02;6.32;;;1.83;;
80183;SDS011;69682;52.138;5.440;2024-03-23T07:49:30;5.25;;;2.15;;
80183;SDS011;69682;52.138;5.440;2024-03-23T07:51:55;6.53;;;1.38;;
80183;SDS011;69682;52.138;5.440;2024-03-23T07:54:21;10.60;;;1.92;;
80183;SDS011;69682;52.138;5.440;2024-03-23T07:56:48;7.13;;;1.38;;
80183;SDS011;69682;52.138;5.440;2024-03-23T07:59:13;2.00;;;1.00;;
80183;SDS011;69682;52.138;5.440;2024-03-23T08:01:39;6.30;;;2.50;;
80183;SDS011;69682;52.138;5.440;2024-03-23T08:04:05;6.45;;;1.33;;
80183;SDS011;69682;52.138;5.440;2024-03-23T08:06:31;4.93;;;1.38;;
80183;SDS011;69682;52.138;5.440;2024-03-23T08:08:57;8.80;;;1.80;;
80183;SDS011;69682;52.138;5.440;2024-03-23T08:11:26;5.25;;;1.65;;
80183;SDS011;69682;52.138;5.440;2024-03-23T08:13:53;2.95;;;1.23;;
80183;SDS011;69682;52.138;5.440;2024-03-23T08:16:18;7.32;;;1.50;;
80183;SDS011;69682;52.138;5.440;2024-03-23T08:18:44;6.88;;;1.80;;
80183;SDS011;69682;52.138;5.440;2024-03-23T08:21:10;3.33;;;1.60;;
80183;SDS011;69682;52.138;5.440;2024-03-23T08:23:36;5.32;;;1.30;;
80183;SDS011;69682;52.138;5.440;2024-03-23T08:26:05;3.47;;;1.30;;
80183;SDS011;69682;52.138;5.440;2024-03-23T08:28:35;1.48;;;0.88;;
80183;SDS011;69682;52.138;5.440;2024-03-23T08:31:02;6.30;;;1.25;;
80183;SDS011;69682;52.138;5.440;2024-03-23T08:33:33;3.95;;;1.30;;
80183;SDS011;69682;52.138;5.440;2024-03-23T08:36:03;3.67;;;1.33;;
80183;SDS011;69682;52.138;5.440;2024-03-23T08:38:30;7.03;;;1.90;;
80183;SDS011;69682;52.138;5.440;2024-03-23T08:40:57;3.50;;;1.08;;
80183;SDS011;69682;52.138;5.440;2024-03-23T08:43:28;3.72;;;1.50;;
80183;SDS011;69682;52.138;5.440;2024-03-23T08:46:02;5.43;;;1.40;;
80183;SDS011;69682;52.138;5.440;2024-03-23T08:48:32;1.50;;;1.35;;
80183;SDS011;69682;52.138;5.440;2024-03-23T08:51:00;3.17;;;1.10;;
80183;SDS011;69682;52.138;5.440;2024-03-23T08:53:27;5.25;;;1.40;;
80183;SDS011;69682;52.138;5.440;2024-03-23T08:55:55;7.32;;;1.13;;
80183;SDS011;69682;52.138;5.440;2024-03-23T08:58:25;4.15;;;1.40;;
80183;SDS011;69682;52.138;5.440;2024-03-23T09:00:52;4.82;;;1.50;;
80183;SDS011;69682;52.138;5.440;2024-03-23T09:03:18;8.88;;;1.80;;
80183;SDS011;69682;52.138;5.440;2024-03-23T09:05:44;4.93;;;1.02;;
80183;SDS011;69682;52.138;5.440;2024-03-23T09:08:09;4.22;;;1.10;;
80183;SDS011;69682;52.138;5.440;2024-03-23T09:10:39;3.17;;;1.10;;
80183;SDS011;69682;52.138;5.440;2024-03-23T09:13:06;7.90;;;1.52;;
80183;SDS011;69682;52.138;5.440;2024-03-23T09:15:35;0.43;;;0.43;;
80183;SDS011;69682;52.138;5.440;2024-03-23T09:18:11;2.35;;;0.93;;
80183;SDS011;69682;52.138;5.440;2024-03-23T09:20:37;4.90;;;0.82;;
80183;SDS011;69682;52.138;5.440;2024-03-23T09:25:31;2.45;;;0.77;;
80183;SDS011;69682;52.138;5.440;2024-03-23T09:27:58;1.33;;;1.10;;
80183;SDS011;69682;52.138;5.440;2024-03-23T09:30:23;5.43;;;1.90;;
80183;SDS011;69682;52.138;5.440;2024-03-23T09:32:49;8.27;;;1.45;;
80183;SDS011;69682;52.138;5.440;2024-03-23T09:35:14;3.33;;;1.02;;
80183;SDS011;69682;52.138;5.440;2024-03-23T09:37:40;2.70;;;1.10;;
80183;SDS011;69682;52.138;5.440;2024-03-23T09:40:09;7.97;;;2.00;;
80183;SDS011;69682;52.138;5.440;2024-03-23T09:42:36;4.70;;;1.10;;
80183;SDS011;69682;52.138;5.440;2024-03-23T09:45:02;2.45;;;1.15;;
80183;SDS011;69682;52.138;5.440;2024-03-23T09:47:32;5.30;;;1.52;;
80183;SDS011;69682;52.138;5.440;2024-03-23T09:49:59;2.00;;;0.95;;
80183;SDS011;69682;52.138;5.440;2024-03-23T09:52:26;2.60;;;0.77;;
80183;SDS011;69682;52.138;5.440;2024-03-23T09:54:51;0.57;;;0.52;;
80183;SDS011;69682;52.138;5.440;2024-03-23T09:57:17;3.95;;;1.13;;
80183;SDS011;69682;52.138;5.440;2024-03-23T09:59:43;2.20;;;0.73;;
80183;SDS011;69682;52.138;5.440;2024-03-23T10:02:09;6.25;;;1.40;;
80183;SDS011;69682;52.138;5.440;2024-03-23T10:04:36;10.05;;;1.00;;
80183;SDS011;69682;52.138;5.440;2024-03-23T10:07:21;0.35;;;0.35;;
80183;SDS011;69682;52.138;5.440;2024-03-23T10:09:56;3.90;;;1.13;;
80183;SDS011;69682;52.138;5.440;2024-03-23T10:12:22;6.53;;;0.82;;
80183;SDS011;69682;52.138;5.440;2024-03-23T10:14:49;5.93;;;1.70;;
80183;SDS011;69682;52.138;5.440;2024-03-23T10:17:18;2.08;;;1.30;;
80183;SDS011;69682;52.138;5.440;2024-03-23T10:19:45;7.57;;;1.80;;
80183;SDS011;69682;52.138;5.440;2024-03-23T10:22:14;6.57;;;1.42;;
80183;SDS011;69682;52.138;5.440;2024-03-23T10:24:50;5.88;;;1.65;;
80183;SDS011;69682;52.138;5.440;2024-03-23T10:27:19;6.90;;;1.40;;
80183;SDS011;69682;52.138;5.440;2024-03-23T10:29:49;4.30;;;1.33;;
80183;SDS011;69682;52.138;5.440;2024-03-23T10:32:18;4.40;;;0.90;;
80183;SDS011;69682;52.138;5.440;2024-03-23T10:34:44;3.85;;;1.23;;
80183;SDS011;69682;52.138;5.440;2024-03-23T10:37:10;3.60;;;1.10;;
80183;SDS011;69682;52.138;5.440;2024-03-23T10:39:39;6.88;;;1.70;;
80183;SDS011;69682;52.138;5.440;2024-03-23T10:42:11;4.97;;;1.48;;
80183;SDS011;69682;52.138;5.440;2024-03-23T10:44:37;6.55;;;1.50;;
80183;SDS011;69682;52.138;5.440;2024-03-23T10:47:04;5.18;;;0.95;;
80183;SDS011;69682;52.138;5.440;2024-03-23T10:49:31;6.45;;;1.20;;
80183;SDS011;69682;52.138;5.440;2024-03-23T10:51:57;2.30;;;1.52;;
80183;SDS011;69682;52.138;5.440;2024-03-23T10:54:25;3.72;;;0.70;;
80183;SDS011;69682;52.138;5.440;2024-03-23T10:59:44;1.80;;;0.77;;
80183;SDS011;69682;52.138;5.440;2024-03-23T11:02:20;4.40;;;1.40;;
80183;SDS011;69682;52.138;5.440;2024-03-23T11:04:46;6.20;;;1.60;;
80183;SDS011;69682;52.138;5.440;2024-03-23T11:09:58;6.50;;;1.75;;
80183;SDS011;69682;52.138;5.440;2024-03-23T11:12:28;0.93;;;0.45;;
80183;SDS011;69682;52.138;5.440;2024-03-23T11:17:25;1.60;;;1.50;;
80183;SDS011;69682;52.138;5.440;2024-03-23T11:25:16;6.22;;;1.23;;
80183;SDS011;69682;52.138;5.440;2024-03-23T11:27:50;6.95;;;1.40;;
80183;SDS011;69682;52.138;5.440;2024-03-23T11:30:26;3.53;;;1.20;;
80183;SDS011;69682;52.138;5.440;2024-03-23T11:32:55;4.35;;;1.08;;
80183;SDS011;69682;52.138;5.440;2024-03-23T11:38:12;1.92;;;0.80;;
80183;SDS011;69682;52.138;5.440;2024-03-23T11:40:41;3.92;;;0.63;;
80183;SDS011;69682;52.138;5.440;2024-03-23T11:43:08;3.78;;;1.42;;
80183;SDS011;69682;52.138;5.440;2024-03-23T11:45:46;2.08;;;0.90;;
80183;SDS011;69682;52.138;5.440;2024-03-23T11:48:14;8.52;;;1.70;;
80183;SDS011;69682;52.138;5.440;2024-03-23T11:50:41;2.20;;;0.85;;
80183;SDS011;69682;52.138;5.440;2024-03-23T11:55:57;2.42;;;0.90;;
80183;SDS011;69682;52.138;5.440;2024-03-23T11:58:24;1.98;;;0.85;;
80183;SDS011;69682;52.138;5.440;2024-03-23T12:00:57;4.47;;;1.13;;
80183;SDS011;69682;52.138;5.440;2024-03-23T12:03:25;8.80;;;1.20;;
80183;SDS011;69682;52.138;5.440;2024-03-23T12:05:52;4.00;;;1.00;;
80183;SDS011;69682;52.138;5.440;2024-03-23T12:11:10;1.63;;;1.35;;
80183;SDS011;69682;52.138;5.440;2024-03-23T12:13:37;4.18;;;0.82;;
80183;SDS011;69682;52.138;5.440;2024-03-23T12:16:13;8.60;;;1.05;;
80183;SDS011;69682;52.138;5.440;2024-03-23T12:18:41;4.07;;;0.90;;
80183;SDS011;69682;52.138;5.440;2024-03-23T12:21:11;10.18;;;1.35;;
80183;SDS011;69682;52.138;5.440;2024-03-23T12:23:39;4.05;;;1.38;;
80183;SDS011;69682;52.138;5.440;2024-03-23T12:26:05;7.35;;;1.20;;
80183;SDS011;69682;52.138;5.440;2024-03-23T12:28:31;5.45;;;1.02;;
80183;SDS011;69682;52.138;5.440;2024-03-23T12:30:58;4.13;;;2.97;;
80183;SDS011;69682;52.138;5.440;2024-03-23T12:33:24;4.13;;;1.63;;
80183;SDS011;69682;52.138;5.440;2024-03-23T12:35:50;10.52;;;1.73;;
80183;SDS011;69682;52.138;5.440;2024-03-23T12:38:16;1.92;;;1.60;;
80183;SDS011;69682;52.138;5.440;2024-03-23T12:40:50;1.83;;;0.77;;
80183;SDS011;69682;52.138;5.440;2024-03-23T12:43:15;7.95;;;1.05;;
80183;SDS011;69682;52.138;5.440;2024-03-23T12:45:45;3.00;;;1.08;;
80183;SDS011;69682;52.138;5.440;2024-03-23T12:48:12;7.53;;;1.50;;
80183;SDS011;69682;52.138;5.440;2024-03-23T12:50:37;3.53;;;1.15;;
80183;SDS011;69682;52.138;5.440;2024-03-23T12:53:03;4.07;;;0.95;;
80183;SDS011;69682;52.138;5.440;2024-03-23T12:55:30;3.55;;;0.90;;
80183;SDS011;69682;52.138;5.440;2024-03-23T12:57:56;9.30;;;1.35;;
80183;SDS011;69682;52.138;5.440;2024-03-23T13:00:22;2.88;;;0.80;;
80183;SDS011;69682;52.138;5.440;2024-03-23T13:02:50;5.07;;;1.33;;
80183;SDS011;69682;52.138;5.440;2024-03-23T13:05:16;1.40;;;0.73;;
80183;SDS011;69682;52.138;5.440;2024-03-23T13:07:42;3.47;;;1.20;;
80183;SDS011;69682;52.138;5.440;2024-03-23T13:10:07;2.35;;;1.10;;
80183;SDS011;69682;52.138;5.440;2024-03-23T13:12:34;2.53;;;1.00;;
80183;SDS011;69682;52.138;5.440;2024-03-23T13:14:59;2.92;;;0.93;;
80183;SDS011;69682;52.138;5.440;2024-03-23T13:17:26;1.65;;;0.70;;
80183;SDS011;69682;52.138;5.440;2024-03-23T13:19:54;1.40;;;0.90;;
80183;SDS011;69682;52.138;5.440;2024-03-23T13:22:23;2.25;;;0.80;;
80183;SDS011;69682;52.138;5.440;2024-03-23T13:24:49;1.60;;;0.52;;
80183;SDS011;69682;52.138;5.440;2024-03-23T13:27:15;2.88;;;0.82;;
80183;SDS011;69682;52.138;5.440;2024-03-23T13:29:41;0.98;;;0.50;;
80183;SDS011;69682;52.138;5.440;2024-03-23T13:32:06;0.35;;;0.35;;
80183;SDS011;69682;52.138;5.440;2024-03-23T13:34:32;0.57;;;0.35;;
80183;SDS011;69682;52.138;5.440;2024-03-23T13:37:00;0.73;;;0.60;;
80183;SDS011;69682;52.138;5.440;2024-03-23T13:39:26;2.80;;;0.43;;
80183;SDS011;69682;52.138;5.440;2024-03-23T13:41:54;0.38;;;0.38;;
80183;SDS011;69682;52.138;5.440;2024-03-23T13:44:21;2.10;;;0.55;;
80183;SDS011;69682;52.138;5.440;2024-03-23T13:46:46;1.83;;;0.30;;
80183;SDS011;69682;52.138;5.440;2024-03-23T13:49:18;0.77;;;0.40;;
80183;SDS011;69682;52.138;5.440;2024-03-23T13:51:50;3.67;;;1.15;;
80183;SDS011;69682;52.138;5.440;2024-03-23T13:54:16;2.30;;;1.15;;
80183;SDS011;69682;52.138;5.440;2024-03-23T13:56:41;1.88;;;0.80;;
80183;SDS011;69682;52.138;5.440;2024-03-23T13:59:07;0.70;;;0.40;;
80183;SDS011;69682;52.138;5.440;2024-03-23T14:01:32;2.35;;;0.70;;
80183;SDS011;69682;52.138;5.440;2024-03-23T14:03:58;2.08;;;0.95;;
80183;SDS011;69682;52.138;5.440;2024-03-23T14:06:27;5.35;;;1.30;;
80183;SDS011;69682;52.138;5.440;2024-03-23T14:08:53;2.22;;;0.68;;
80183;SDS011;69682;52.138;5.440;2024-03-23T14:11:18;5.63;;;1.63;;
80183;SDS011;69682;52.138;5.440;2024-03-23T14:13:44;2.08;;;0.85;;
80183;SDS011;69682;52.138;5.440;2024-03-23T14:16:10;2.42;;;0.80;;
80183;SDS011;69682;52.138;5.440;2024-03-23T14:18:36;6.15;;;1.42;;
80183;SDS011;69682;52.138;5.440;2024-03-23T14:21:02;2.85;;;1.00;;
80183;SDS011;69682;52.138;5.440;2024-03-23T14:23:28;4.10;;;0.82;;
80183;SDS011;69682;52.138;5.440;2024-03-23T14:25:58;6.20;;;1.10;;
80183;SDS011;69682;52.138;5.440;2024-03-23T14:28:24;5.10;;;1.10;;
80183;SDS011;69682;52.138;5.440;2024-03-23T14:30:55;2.85;;;0.85;;
80183;SDS011;69682;52.138;5.440;2024-03-23T14:35:56;4.05;;;1.33;;
80183;SDS011;69682;52.138;5.440;2024-03-23T14:38:23;5.43;;;1.20;;
80183;SDS011;69682;52.138;5.440;2024-03-23T14:40:49;2.25;;;1.23;;
80183;SDS011;69682;52.138;5.440;2024-03-23T14:43:15;4.93;;;1.27;;
80183;SDS011;69682;52.138;5.440;2024-03-23T14:48:45;3.53;;;1.20;;
80183;SDS011;69682;52.138;5.440;2024-03-23T14:51:11;1.08;;;0.75;;
80183;SDS011;69682;52.138;5.440;2024-03-23T14:53:41;6.22;;;0.90;;
80183;SDS011;69682;52.138;5.440;2024-03-23T14:56:10;5.80;;;1.13;;
80183;SDS011;69682;52.138;5.440;2024-03-23T14:58:38;4.13;;;0.70;;
80183;SDS011;69682;52.138;5.440;2024-03-23T15:01:05;2.17;;;1.00;;
80183;SDS011;69682;52.138;5.440;2024-03-23T15:03:35;3.42;;;0.98;;
80183;SDS011;69682;52.138;5.440;2024-03-23T15:06:02;2.38;;;0.93;;
80183;SDS011;69682;52.138;5.440;2024-03-23T15:08:28;1.77;;;0.85;;
80183;SDS011;69682;52.138;5.440;2024-03-23T15:10:54;3.60;;;1.15;;
80183;SDS011;69682;52.138;5.440;2024-03-23T15:13:23;14.40;;;1.42;;
80183;SDS011;69682;52.138;5.440;2024-03-23T15:15:49;4.10;;;1.40;;
80183;SDS011;69682;52.138;5.440;2024-03-23T15:18:17;2.05;;;1.40;;
80183;SDS011;69682;52.138;5.440;2024-03-23T15:21:01;2.65;;;0.70;;
80183;SDS011;69682;52.138;5.440;2024-03-23T15:23:28;4.88;;;0.88;;
80183;SDS011;69682;52.138;5.440;2024-03-23T15:25:58;3.33;;;1.05;;
80183;SDS011;69682;52.138;5.440;2024-03-23T15:28:27;4.72;;;1.42;;
80183;SDS011;69682;52.138;5.440;2024-03-23T15:31:14;4.03;;;0.75;;
80183;SDS011;69682;52.138;5.440;2024-03-23T15:33:40;5.30;;;1.25;;
80183;SDS011;69682;52.138;5.440;2024-03-23T15:36:06;3.03;;;1.10;;
80183;SDS011;69682;52.138;5.440;2024-03-23T15:38:31;0.88;;;0.70;;
80183;SDS011;69682;52.138;5.440;2024-03-23T15:40:57;2.25;;;1.60;;
80183;SDS011;69682;52.138;5.440;2024-03-23T15:43:23;2.35;;;0.60;;
80183;SDS011;69682;52.138;5.440;2024-03-23T15:48:25;1.88;;;0.73;;
80183;SDS011;69682;52.138;5.440;2024-03-23T15:50:53;2.25;;;0.63;;
80183;SDS011;69682;52.138;5.440;2024-03-23T15:53:22;1.65;;;0.47;;
80183;SDS011;69682;52.138;5.440;2024-03-23T15:55:58;6.45;;;1.35;;
80183;SDS011;69682;52.138;5.440;2024-03-23T15:58:28;2.67;;;1.35;;
80183;SDS011;69682;52.138;5.440;2024-03-23T16:00:59;4.40;;;1.77;;
80183;SDS011;69682;52.138;5.440;2024-03-23T16:03:25;5.53;;;1.15;;
80183;SDS011;69682;52.138;5.440;2024-03-23T16:05:55;2.58;;;1.52;;
80183;SDS011;69682;52.138;5.440;2024-03-23T16:08:23;4.88;;;1.35;;
80183;SDS011;69682;52.138;5.440;2024-03-23T16:10:49;3.20;;;1.08;;
80183;SDS011;69682;52.138;5.440;2024-03-23T16:13:15;3.88;;;1.90;;
80183;SDS011;69682;52.138;5.440;2024-03-23T16:15:41;2.90;;;1.30;;
80183;SDS011;69682;52.138;5.440;2024-03-23T16:18:07;4.32;;;1.02;;